Aviation Digital Data Service (ADDS)

Output produced by METARs form (1429 UTC 04 September 2015)
found at http://aviationweather.gov/adds/metars/
 
KBDR 041120Z 0412/0512 05009KT P6SM BKN050 
     FM041600 07013KT P6SM BKN050 
     FM042000 08014G20KT P6SM BKN150 
     FM050400 04009KT P6SM SCT250